Skip Navigation LinksHome page > Weather > Current weather Skip Navigation Links

Current Weather

Indira Gandhi Intl Apt, New Delhi, India

For information only: do not use for flight planning or navigation.
Latest weather
Observation time Wednesday, September 3, 2014 12:00 AM IST
Local time Wednesday, September 3, 2014 12:20 AM IST
Flight conditions Instrument Meteorological Conditions
Winds
Wind direction East-Northeast (70°)
Wind speed 7 mph
Visibility 2.2 mi.
Present weather haze
Sky condition
Ceiling 10,000 ft. broken clouds
Cloud layer scattered clouds 3,000 ft.
Cloud layer few clouds with cumulonimbus 4,000 ft.
Cloud layer broken clouds 10,000 ft.
Temperature 84°F
Dewpoint 73°F
Altimeter 29.65 in.Hg
Derived measurements
Relative humidity 70%
Heat index 91°F
Density altitude 3061 ft.
Remarks
No significant changes expected in the next two hours.
METAR VIDP 021830Z 07006KT 3500 HZ SCT030 FEW040CB BKN100 29/23 Q1004 NOSIG

Settings

Location code

InnerDrive.Weather 4.0.5356.0 Release CLR 4.0.30319.34014
Copyright ©2014 Inner Drive Technology. All rights reserved. Portions Copyright ©1986-2014 David Braverman.

Find weather

Site navigation


Skip Navigation Links

Place info

Page info

PayPal - The safer, easier way to pay online!

Return home.

Copyright ©2014 Inner Drive Technology. Purveyors of fine, hand-crafted computer software. Page printed 2014-09-02T18:50:49 UTC.